Time;durP1;ratioP1;P1;durP2;ratioP2;P2;SDS_P1;SDS_P2;PMS_P1;PMS_P2;Temp;Humidity;BMP_temperature;BMP_pressure;BME280_temperature;BME280_humidity;BME280_pressure;Samples;Min_cycle;Max_cycle;Signal;HPM_P1;HPM_P2
2022/09/10 00:01:47;;;;;;;13.18;6.22;;;512.70;2380.80;;;;;;5037313;28;20037;-82
2022/09/10 00:04:15;;;;;;;9.45;5.93;;;512.60;2380.80;;;;;;5069690;28;20033;-79
2022/09/10 00:06:42;;;;;;;10.95;5.38;;;512.80;2380.80;;;;;;5039035;28;20052;-80
2022/09/10 00:09:10;;;;;;;10.80;5.72;;;512.80;2380.80;;;;;;5036747;28;20021;-80
2022/09/10 00:11:39;;;;;;;10.85;6.05;;;512.80;2380.80;;;;;;5037434;28;20495;-80
2022/09/10 00:14:07;;;;;;;11.35;6.30;;;512.60;2380.80;;;;;;5037115;28;20040;-79
2022/09/10 00:16:33;;;;;;;15.48;6.43;;;512.70;2380.80;;;;;;5054985;28;20017;-79
2022/09/10 00:19:00;;;;;;;8.45;6.75;;;512.80;2380.80;;;;;;5039009;28;20079;-79
2022/09/10 00:21:26;;;;;;;11.88;6.53;;;512.80;2380.80;;;;;;5032813;28;20039;-80
2022/09/10 00:23:53;;;;;;;13.30;7.40;;;512.90;2380.80;;;;;;5036787;28;20021;-80
2022/09/10 00:26:27;;;;;;;16.10;8.70;;;512.90;2380.80;;;;;;5072051;28;20025;-80
2022/09/10 00:28:55;;;;;;;15.48;10.02;;;512.90;2380.80;;;;;;5039139;28;20063;-80
2022/09/10 00:31:22;;;;;;;14.93;7.18;;;512.50;2380.80;;;;;;5037675;28;20029;-80
2022/09/10 00:33:49;;;;;;;12.52;6.72;;;512.40;2380.80;;;;;;5034756;28;20041;-79
2022/09/10 00:36:23;;;;;;;9.40;6.05;;;512.40;2380.80;;;;;;5072457;28;20380;-79
2022/09/10 00:38:52;;;;;;;14.57;6.05;;;512.40;2380.80;;;;;;5034407;28;20386;-80
2022/09/10 00:41:20;;;;;;;11.40;6.25;;;512.50;2380.80;;;;;;5051920;28;20068;-80
2022/09/10 00:43:55;;;;;;;9.18;5.88;;;512.40;2380.80;;;;;;5051787;28;20470;-80
2022/09/10 00:46:42;;;;;;;14.45;7.38;;;512.50;2380.80;;;;;;5066960;28;20017;-80
2022/09/10 00:49:21;;;;;;;13.05;7.00;;;512.50;2380.80;;;;;;5042606;28;20044;-80
2022/09/10 00:51:49;;;;;;;11.77;6.88;;;512.60;2380.80;;;;;;5053391;28;20025;-79
2022/09/10 00:54:17;;;;;;;11.35;6.78;;;512.60;2380.80;;;;;;5031609;28;20033;-79
2022/09/10 00:56:44;;;;;;;13.15;6.97;;;512.60;2380.80;;;;;;5033338;28;20428;-80
2022/09/10 00:59:15;;;;;;;16.15;7.78;;;512.30;2380.80;;;;;;5038728;28;20053;-80
2022/09/10 01:01:41;;;;;;;12.45;7.63;;;512.10;2380.80;;;;;;5065087;28;20446;-80
2022/09/10 01:04:09;;;;;;;16.65;7.93;;;512.20;2380.80;;;;;;5031132;28;20028;-80
2022/09/10 01:06:38;;;;;;;15.95;6.82;;;512.10;2380.80;;;;;;5041268;28;20029;-78
2022/09/10 01:09:05;;;;;;;11.68;5.65;;;512.10;2380.80;;;;;;5038199;28;20163;-80
2022/09/10 01:12:07;;;;;;;9.00;5.50;;;512.10;2380.80;;;;;;5033431;28;20465;-80
2022/09/10 01:14:58;;;;;;;9.70;6.90;;;512.20;2380.80;;;;;;5038901;28;20116;-78
2022/09/10 01:17:53;;;;;;;14.10;5.85;;;512.10;2380.80;;;;;;5032422;28;20105;-79
2022/09/10 01:20:19;;;;;;;11.35;7.25;;;;;;;;;;5031437;28;20017;-79
2022/09/10 01:22:48;;;;;;;13.25;6.68;;;;;;;;;;5034299;28;20029;-79
2022/09/10 01:25:14;;;;;;;15.95;7.78;;;;;;;;;;5035064;28;20044;-80
2022/09/10 01:27:40;;;;;;;13.38;6.72;;;;;;;;;;5051096;28;20025;-79
2022/09/10 01:30:08;;;;;;;12.45;6.20;;;;;;;;;;5050966;28;20021;-78
2022/09/10 01:32:34;;;;;;;12.30;7.20;;;;;;;;;;5047496;28;20032;-81
2022/09/10 01:35:14;;;;;;;11.07;6.78;;;;;;;;;;5050553;28;20029;-79
2022/09/10 01:37:42;;;;;;;16.02;6.45;;;;;;;;;;5040416;28;20140;-80
2022/09/10 01:40:09;;;;;;;10.65;7.43;;;;;;;;;;5033557;28;20379;-79
2022/09/10 01:42:36;;;;;;;12.43;6.78;;;;;;;;;;5039363;28;20128;-81
2022/09/10 01:45:03;;;;;;;14.45;7.07;;;;;;;;;;5045297;28;20021;-80
2022/09/10 01:47:45;;;;;;;11.52;6.60;;;;;;;;;;5038284;28;20135;-80
2022/09/10 01:50:18;;;;;;;9.60;6.70;;;;;;;;;;5037538;28;20025;-79
2022/09/10 01:52:57;;;;;;;10.32;6.82;;;;;;;;;;5038623;28;20057;-81
2022/09/10 01:55:32;;;;;;;11.13;7.07;;;;;;;;;;5044053;28;20022;-81
2022/09/10 01:58:18;;;;;;;13.25;7.90;;;;;;;;;;5036578;28;20120;-81
2022/09/10 02:01:14;;;;;;;17.02;8.48;;;;;;;;;;5028495;28;20064;-81
2022/09/10 02:03:41;;;;;;;12.82;7.28;;;;;;;;;;5028141;28;20056;-80
2022/09/10 02:06:10;;;;;;;15.07;8.40;;;;;;;;;;5043077;28;20739;-80
2022/09/10 02:08:38;;;;;;;14.73;7.55;;;;;;;;;;5040109;28;20032;-79
2022/09/10 02:11:05;;;;;;;14.65;8.50;;;;;;;;;;5039463;28;20032;-79
2022/09/10 02:13:33;;;;;;;11.50;8.10;;;;;;;;;;5042914;28;20079;-81
2022/09/10 02:15:59;;;;;;;12.45;8.13;;;;;;;;;;5043455;28;20981;-81
2022/09/10 02:18:26;;;;;;;16.15;7.45;;;512.00;2380.80;;;;;;5040603;28;20028;-80
2022/09/10 02:20:55;;;;;;;13.98;7.93;;;512.00;2380.80;;;;;;5053124;28;20116;-79
2022/09/10 02:23:30;;;;;;;16.95;8.13;;;487.20;2380.80;;;;;;5055973;28;20044;-79
2022/09/10 02:25:56;;;;;;;20.63;7.95;;;487.30;2380.80;;;;;;5072445;28;20473;-79
2022/09/10 02:28:22;;;;;;;15.88;7.80;;;487.30;2380.80;;;;;;5057125;28;20039;-80
2022/09/10 02:30:48;;;;;;;13.68;8.30;;;512.00;2380.80;;;;;;5035418;28;20121;-80
2022/09/10 02:33:15;;;;;;;18.33;10.13;;;512.00;2380.80;;;;;;5034920;28;20117;-80
2022/09/10 02:35:42;;;;;;;12.95;8.55;;;487.30;2380.80;;;;;;5042379;28;20029;-80
2022/09/10 02:38:09;;;;;;;15.85;9.27;;;512.10;2380.80;;;;;;5040046;28;20071;-80
2022/09/10 02:40:35;;;;;;;17.98;9.75;;;512.10;2380.80;;;;;;5037033;28;20034;-80
2022/09/10 02:43:01;;;;;;;14.57;10.05;;;512.00;2380.80;;;;;;5040616;28;20033;-81
2022/09/10 02:45:28;;;;;;;17.10;9.38;;;487.30;2380.80;;;;;;5070361;28;20029;-81
2022/09/10 02:47:53;;;;;;;16.60;9.55;;;487.30;2380.80;;;;;;5043148;28;20063;-80
2022/09/10 02:50:19;;;;;;;16.88;10.00;;;487.30;2380.80;;;;;;5042430;28;20029;-80
2022/09/10 02:52:45;;;;;;;14.77;9.18;;;512.10;2380.80;;;;;;5047349;28;20032;-81
2022/09/10 02:55:12;;;;;;;15.68;10.20;;;512.00;2380.80;;;;;;5036716;28;20026;-81
2022/09/10 02:57:38;;;;;;;14.52;9.38;;;487.30;2380.80;;;;;;5070287;28;20026;-80
2022/09/10 03:00:06;;;;;;;17.65;9.18;;;487.20;2380.80;;;;;;5038653;28;20026;-80
2022/09/10 03:02:32;;;;;;;16.33;10.40;;;512.00;2380.80;;;;;;5040071;28;20030;-81
2022/09/10 03:04:58;;;;;;;15.40;9.65;;;512.10;2380.80;;;;;;5040614;28;20037;-80
2022/09/10 03:07:24;;;;;;;17.27;8.70;;;512.10;2380.80;;;;;;5040493;28;20025;-80
2022/09/10 03:09:49;;;;;;;18.50;10.80;;;512.20;2380.80;;;;;;5037771;28;20379;-79
2022/09/10 03:12:15;;;;;;;17.90;9.10;;;512.10;2380.80;;;;;;5037288;28;20045;-81
2022/09/10 03:14:46;;;;;;;15.90;9.68;;;487.30;2022.40;;;;;;5036324;28;20029;-80
2022/09/10 03:17:12;;;;;;;12.63;8.57;;;487.30;2073.60;;;;;;5034599;28;20056;-81
2022/09/10 03:19:38;;;;;;;12.75;9.15;;;487.30;2380.80;;;;;;5071771;28;20037;-80
2022/09/10 03:22:04;;;;;;;18.90;10.00;;;512.30;2380.80;;;;;;5040445;28;20040;-79
2022/09/10 03:24:30;;;;;;;17.60;9.38;;;512.20;2380.80;;;;;;5038944;28;20022;-81
2022/09/10 03:26:56;;;;;;;14.20;9.52;;;512.20;2380.80;;;;;;5038998;28;20053;-79
2022/09/10 03:29:23;;;;;;;15.52;9.40;;;512.20;2380.80;;;;;;5037474;28;20047;-79
2022/09/10 03:31:50;;;;;;;15.98;8.65;;;487.30;2304.00;;;;;;5040749;28;20025;-79
2022/09/10 03:34:17;;;;;;;12.00;8.75;;;512.10;2380.80;;;;;;5036853;28;20044;-80
2022/09/10 03:36:46;;;;;;;18.98;9.82;;;512.10;2380.80;;;;;;5034783;28;20062;-79
2022/09/10 03:39:13;;;;;;;16.55;9.15;;;512.10;2380.80;;;;;;5043789;28;20463;-79
2022/09/10 03:41:38;;;;;;;14.90;9.68;;;512.10;2380.80;;;;;;5039558;28;20128;-80
2022/09/10 03:44:05;;;;;;;17.15;10.77;;;487.30;2380.80;;;;;;5040653;28;20112;-80
2022/09/10 03:46:31;;;;;;;13.90;10.52;;;487.10;2380.80;;;;;;5036249;28;20025;-79
2022/09/10 03:49:01;;;;;;;16.92;10.43;;;487.20;2380.80;;;;;;5037103;28;20562;-79
2022/09/10 03:51:28;;;;;;;17.45;10.80;;;487.30;2380.80;;;;;;5072999;28;20422;-79
2022/09/10 03:53:54;;;;;;;20.48;11.25;;;487.20;2380.80;;;;;;5068251;28;20897;-80
2022/09/10 03:56:20;;;;;;;19.17;11.80;;;487.30;2380.80;;;;;;5073348;28;20021;-80
2022/09/10 03:58:48;;;;;;;17.10;10.68;;;487.20;2252.80;;;;;;5036523;28;20028;-80
2022/09/10 04:01:14;;;;;;;19.70;12.35;;;487.20;2380.80;;;;;;5076998;28;20028;-80
2022/09/10 04:03:41;;;;;;;15.18;10.63;;;487.00;2380.80;;;;;;5073040;28;20025;-80
2022/09/10 04:06:11;;;;;;;14.63;10.77;;;487.20;2380.80;;;;;;5038346;28;20522;-79
2022/09/10 04:08:37;;;;;;;19.13;10.85;;;487.30;2380.80;;;;;;5042943;28;20037;-80
2022/09/10 04:11:03;;;;;;;16.58;11.55;;;487.30;2380.80;;;;;;5040170;28;20021;-81
2022/09/10 04:13:30;;;;;;;18.88;11.63;;;487.30;2380.80;;;;;;5040991;28;20021;-80
2022/09/10 04:15:59;;;;;;;16.02;11.40;;;487.20;2380.80;;;;;;5037199;28;20454;-81
2022/09/10 04:18:26;;;;;;;18.50;11.00;;;487.20;2380.80;;;;;;5037105;28;20022;-79
2022/09/10 04:20:52;;;;;;;15.27;10.48;;;487.20;2380.80;;;;;;5069205;28;20030;-80
2022/09/10 04:23:18;;;;;;;19.95;11.80;;;487.20;2380.80;;;;;;5034653;28;20042;-79
2022/09/10 04:25:45;;;;;;;16.58;11.23;;;487.10;2380.80;;;;;;5040886;28;20029;-80
2022/09/10 04:28:11;;;;;;;23.83;12.57;;;487.00;2380.80;;;;;;5066758;28;20025;-81
2022/09/10 04:30:39;;;;;;;12.25;10.50;;;487.10;2380.80;;;;;;5068763;28;20029;-79
2022/09/10 04:33:05;;;;;;;21.98;12.00;;;487.20;2380.80;;;;;;5035812;28;20382;-80
2022/09/10 04:35:31;;;;;;;21.00;12.43;;;512.20;2380.80;;;;;;5046418;28;20390;-80
2022/09/10 04:37:56;;;;;;;16.63;11.25;;;487.10;2380.80;;;;;;5038779;28;20025;-80
2022/09/10 04:40:22;;;;;;;21.27;11.00;;;487.30;2380.80;;;;;;5037734;28;20056;-81
2022/09/10 04:42:48;;;;;;;17.77;11.77;;;512.00;2380.80;;;;;;5038494;28;20049;-80
2022/09/10 04:45:14;;;;;;;17.25;12.75;;;487.30;2380.80;;;;;;5067957;28;20382;-79
2022/09/10 04:47:40;;;;;;;17.73;11.57;;;487.10;2380.80;;;;;;5039621;28;20029;-80
2022/09/10 04:50:06;;;;;;;14.85;11.38;;;487.20;2048.00;;;;;;5076455;28;22331;-80
2022/09/10 04:52:32;;;;;;;19.75;13.07;;;487.30;2380.80;;;;;;5073037;28;20033;-80
2022/09/10 04:54:58;;;;;;;15.15;11.68;;;512.00;2380.80;;;;;;5039060;28;20094;-80
2022/09/10 04:57:24;;;;;;;26.70;13.18;;;512.10;2380.80;;;;;;5034039;28;20037;-79
2022/09/10 04:59:54;;;;;;;17.95;12.65;;;512.20;2380.80;;;;;;5065125;28;20059;-80
2022/09/10 05:02:20;;;;;;;23.27;13.98;;;512.20;2380.80;;;;;;5067271;28;20182;-81
2022/09/10 05:04:46;;;;;;;19.88;12.43;;;512.10;2380.80;;;;;;5038929;28;20553;-81
2022/09/10 05:07:12;;;;;;;22.33;11.88;;;512.10;2380.80;;;;;;5041027;28;20026;-80
2022/09/10 05:09:37;;;;;;;21.25;12.35;;;512.20;2380.80;;;;;;5037945;28;20184;-80
2022/09/10 05:12:04;;;;;;;21.88;13.77;;;512.30;2380.80;;;;;;5036165;28;20123;-80
2022/09/10 05:14:29;;;;;;;20.75;14.27;;;512.30;2380.80;;;;;;5040300;28;20022;-81
2022/09/10 05:16:55;;;;;;;18.00;13.50;;;512.50;2380.80;;;;;;5037814;28;20033;-80
2022/09/10 05:19:21;;;;;;;20.52;13.40;;;512.60;2380.80;;;;;;5034119;28;20108;-81
2022/09/10 05:21:47;;;;;;;20.70;11.77;;;512.80;2380.80;;;;;;5037992;28;20163;-80
2022/09/10 05:24:14;;;;;;;16.38;11.25;;;512.90;2380.80;;;;;;5039529;28;20029;-80
2022/09/10 05:26:40;;;;;;;19.52;12.20;;;537.60;2406.40;;;;;;5070131;28;20123;-79
2022/09/10 05:29:07;;;;;;;20.60;14.15;;;537.60;2406.40;;;;;;5038542;28;20029;-79
2022/09/10 05:31:36;;;;;;;18.92;12.60;;;537.60;2406.40;;;;;;5041999;28;20087;-81
2022/09/10 05:34:02;;;;;;;20.25;13.35;;;512.90;2124.80;;;;;;5069832;28;20025;-81
2022/09/10 05:36:30;;;;;;;24.02;13.73;;;537.60;2406.40;;;;;;5034339;28;20077;-79
2022/09/10 05:38:58;;;;;;;21.48;13.75;;;512.90;2380.80;;;;;;5069704;28;20025;-81
2022/09/10 05:41:25;;;;;;;20.38;13.07;;;512.80;2380.80;;;;;;5032128;28;20036;-80
2022/09/10 05:43:50;;;;;;;18.63;13.43;;;537.60;2406.40;;;;;;5040748;28;20394;-81
2022/09/10 05:46:16;;;;;;;23.48;13.88;;;512.70;2380.80;;;;;;5037756;28;20040;-80
2022/09/10 05:48:42;;;;;;;18.77;12.68;;;512.90;2380.80;;;;;;5040018;28;20026;-81
2022/09/10 05:51:08;;;;;;;19.00;13.40;;;512.90;2380.80;;;;;;5040753;28;20372;-81
2022/09/10 05:53:34;;;;;;;24.25;13.75;;;512.90;2380.80;;;;;;5035230;28;20064;-80
2022/09/10 05:56:00;;;;;;;26.17;13.65;;;537.60;2406.40;;;;;;5039839;28;20029;-82
2022/09/10 05:58:29;;;;;;;23.10;13.43;;;537.60;2406.40;;;;;;5072102;28;20275;-82
2022/09/10 06:00:56;;;;;;;24.23;12.57;;;537.60;2406.40;;;;;;5033949;28;20537;-82
2022/09/10 06:03:23;;;;;;;17.77;11.23;;;537.60;2406.40;;;;;;5040420;28;20040;-81
2022/09/10 06:05:50;;;;;;;19.10;12.63;;;537.60;2355.20;;;;;;5076468;28;20028;-81
2022/09/10 06:08:17;;;;;;;21.63;13.48;;;537.60;2406.40;;;;;;5034441;28;20030;-81
2022/09/10 06:11:06;;;;;;;17.90;11.82;;;537.70;2406.40;;;;;;5042812;28;20033;-81
2022/09/10 06:13:33;;;;;;;20.48;11.73;;;537.80;2355.20;;;;;;5050763;28;20039;-80
2022/09/10 06:15:59;;;;;;;22.25;13.20;;;538.00;2406.40;;;;;;5050285;28;20029;-81
2022/09/10 06:18:26;;;;;;;25.23;13.60;;;537.90;2406.40;;;;;;5042125;28;20064;-82
2022/09/10 06:21:13;;;;;;;20.42;12.68;;;537.80;2406.40;;;;;;5033547;28;20536;-81
2022/09/10 06:23:40;;;;;;;24.40;14.65;;;537.80;2380.80;;;;;;5032125;28;20041;-82
2022/09/10 06:26:10;;;;;;;22.95;15.13;;;538.30;2406.40;;;;;;5032144;28;20036;-80
2022/09/10 06:28:36;;;;;;;22.13;16.45;;;537.80;2406.40;;;;;;5041609;28;20025;-82
2022/09/10 06:31:04;;;;;;;19.30;13.82;;;537.70;2406.40;;;;;;5034592;28;20105;-82
2022/09/10 06:33:31;;;;;;;18.77;13.30;;;537.80;2406.40;;;;;;5072777;28;20037;-81
2022/09/10 06:35:59;;;;;;;20.35;13.65;;;538.00;2406.40;;;;;;5032218;28;20050;-80
2022/09/10 06:38:28;;;;;;;21.15;12.25;;;538.00;2406.40;;;;;;5034996;28;20026;-79
2022/09/10 06:40:56;;;;;;;20.00;11.98;;;538.00;2406.40;;;;;;5038397;28;20025;-81
2022/09/10 06:43:24;;;;;;;20.33;12.40;;;538.30;2406.40;;;;;;5046718;28;20443;-81
2022/09/10 06:45:54;;;;;;;19.05;12.18;;;563.20;2432.00;;;;;;5074087;28;20059;-82
2022/09/10 06:48:26;;;;;;;27.20;13.57;;;538.20;2406.40;;;;;;5051076;28;20021;-82
2022/09/10 06:50:52;;;;;;;24.15;12.98;;;538.20;2406.40;;;;;;5043566;28;20017;-81
2022/09/10 06:53:22;;;;;;;23.25;13.18;;;538.20;2406.40;;;;;;5044443;28;20110;-82
2022/09/10 06:55:49;;;;;;;19.60;11.60;;;538.10;2406.40;;;;;;5073829;28;20470;-81
2022/09/10 06:58:17;;;;;;;17.60;10.70;;;538.20;2124.80;;;;;;5070662;28;20083;-81
2022/09/10 07:00:44;;;;;;;25.50;12.80;;;538.30;2406.40;;;;;;5041194;28;20037;-81
2022/09/10 07:03:10;;;;;;;21.17;12.05;;;538.40;2406.40;;;;;;5036944;28;20063;-79
2022/09/10 07:05:36;;;;;;;19.85;11.52;;;538.40;2406.40;;;;;;5045728;28;20448;-81
2022/09/10 07:08:02;;;;;;;20.33;11.55;;;538.50;2406.40;;;;;;5036414;28;20041;-81
2022/09/10 07:10:30;;;;;;;17.80;10.80;;;563.20;2432.00;;;;;;5071490;28;20025;-81
2022/09/10 07:12:56;;;;;;;18.75;11.55;;;563.40;2432.00;;;;;;5054581;28;20028;-82
2022/09/10 07:15:22;;;;;;;14.65;9.73;;;563.50;2432.00;;;;;;5044021;28;20029;-81
2022/09/10 07:17:48;;;;;;;17.65;9.90;;;563.60;2432.00;;;;;;5036335;28;20398;-81
2022/09/10 07:20:14;;;;;;;17.00;10.77;;;563.70;2432.00;;;;;;5039527;28;20100;-81
2022/09/10 07:22:42;;;;;;;24.13;12.65;;;563.70;2432.00;;;;;;5038990;28;20483;-81
2022/09/10 07:25:08;;;;;;;24.52;11.32;;;563.60;2432.00;;;;;;5038629;28;20089;-80
2022/09/10 07:27:34;;;;;;;22.00;10.43;;;563.70;2432.00;;;;;;5037387;28;20388;-82
2022/09/10 07:30:00;;;;;;;16.65;10.45;;;563.60;2432.00;;;;;;5073939;28;20082;-83
2022/09/10 07:32:25;;;;;;;18.45;10.52;;;563.70;2432.00;;;;;;5070257;28;20041;-83
2022/09/10 07:34:52;;;;;;;22.58;11.00;;;563.70;2432.00;;;;;;5075392;28;20032;-84
2022/09/10 07:37:17;;;;;;;19.83;11.38;;;563.80;2432.00;;;;;;5076968;28;20652;-84
2022/09/10 07:39:44;;;;;;;22.27;12.70;;;564.00;2432.00;;;;;;5048421;28;20064;-84
2022/09/10 07:42:10;;;;;;;24.05;13.15;;;564.00;2432.00;;;;;;5045550;28;20036;-84
2022/09/10 07:44:36;;;;;;;26.48;14.35;;;;;;;;;;5072176;28;20084;-85
2022/09/10 07:47:02;;;;;;;22.77;12.70;;;564.10;2432.00;;;;;;5044379;28;20059;-83
2022/09/10 07:49:29;;;;;;;24.33;13.40;;;564.00;2432.00;;;;;;5045104;28;20410;-84
2022/09/10 07:51:55;;;;;;;27.13;14.73;;;;;;;;;;5047318;28;20144;-84
2022/09/10 07:54:21;;;;;;;28.02;14.27;;;589.10;2432.00;;;;;;5038298;28;20026;-84
2022/09/10 07:56:47;;;;;;;20.60;12.48;;;589.10;2432.00;;;;;;5042161;28;20029;-86
2022/09/10 07:59:14;;;;;;;20.35;12.38;;;589.30;2432.00;;;;;;5081664;28;20079;-85
2022/09/10 08:01:39;;;;;;;22.83;12.32;;;589.30;2432.00;;;;;;5043939;28;20084;-86
2022/09/10 08:04:06;;;;;;;22.52;12.80;;;589.50;2432.00;;;;;;5043117;28;20029;-85
2022/09/10 08:06:32;;;;;;;25.52;13.50;;;589.40;2432.00;;;;;;5045752;28;20068;-85
2022/09/10 08:08:59;;;;;;;30.52;15.48;;;589.50;2432.00;;;;;;5039608;28;20029;-84
2022/09/10 08:11:25;;;;;;;28.45;12.25;;;589.70;2432.00;;;;;;5039198;28;20029;-83
2022/09/10 08:13:52;;;;;;;23.13;12.63;;;589.60;2432.00;;;;;;5073726;28;20115;-85
2022/09/10 08:16:23;;;;;;;20.20;11.70;;;589.60;2432.00;;;;;;5040350;28;20029;-83
2022/09/10 08:18:50;;;;;;;21.52;11.35;;;589.60;2432.00;;;;;;5039073;28;20067;-84
2022/09/10 08:21:18;;;;;;;22.02;12.07;;;589.70;2432.00;;;;;;5043046;28;20098;-80
2022/09/10 08:23:52;;;;;;;20.63;12.02;;;589.60;2432.00;;;;;;5042433;28;20024;-84
2022/09/10 08:26:22;;;;;;;27.05;11.80;;;589.60;2432.00;;;;;;5038511;28;20060;-83
2022/09/10 08:28:51;;;;;;;21.08;12.10;;;589.50;2432.00;;;;;;5043808;28;20582;-84
2022/09/10 08:31:17;;;;;;;18.17;11.80;;;589.40;2432.00;;;;;;5042632;28;20025;-85
2022/09/10 08:33:51;;;;;;;21.95;12.68;;;589.40;2432.00;;;;;;5045984;28;20055;-85
2022/09/10 08:36:20;;;;;;;18.73;11.45;;;589.60;2432.00;;;;;;5040255;28;20056;-84
2022/09/10 08:38:47;;;;;;;17.95;11.70;;;589.60;2432.00;;;;;;5043255;28;20546;-86
2022/09/10 08:41:31;;;;;;;22.33;12.05;;;589.70;2432.00;;;;;;5043507;28;20378;-84
2022/09/10 08:44:09;;;;;;;18.90;11.00;;;614.40;2432.00;;;;;;5040167;28;20029;-82
2022/09/10 08:46:44;;;;;;;22.15;12.15;;;614.60;2432.00;;;;;;5037412;28;20077;-84
2022/09/10 08:49:45;;;;;;;18.10;12.18;;;614.50;2432.00;;;;;;5044732;28;20067;-81
2022/09/10 08:52:28;;;;;;;19.67;11.98;;;614.50;2432.00;;;;;;5027483;28;20115;-82
2022/09/10 08:55:15;;;;;;;22.92;13.90;;;614.50;2432.00;;;;;;5035295;28;20830;-80
2022/09/10 08:58:03;;;;;;;23.08;13.10;;;614.60;2432.00;;;;;;5041420;28;20072;-85
2022/09/10 09:00:33;;;;;;;22.08;14.55;;;614.60;2432.00;;;;;;5044299;28;20029;-85
2022/09/10 09:03:23;;;;;;;25.33;16.10;;;614.70;2432.00;;;;;;5036469;28;20033;-84
2022/09/10 09:05:54;;;;;;;19.75;12.13;;;614.80;2432.00;;;;;;5043817;28;20059;-84
2022/09/10 09:08:47;;;;;;;18.77;12.13;;;614.80;2432.00;;;;;;5043193;28;20493;-84
2022/09/10 09:11:24;;;;;;;21.63;12.57;;;614.80;2432.00;;;;;;5049145;28;20029;-84
2022/09/10 09:14:12;;;;;;;17.88;11.23;;;614.80;2432.00;;;;;;5047205;28;20082;-84
2022/09/10 09:16:43;;;;;;;22.00;12.93;;;614.60;2432.00;;;;;;5032542;28;20067;-83
2022/09/10 09:19:13;;;;;;;20.15;11.35;;;614.60;2432.00;;;;;;5039963;28;20078;-83
2022/09/10 09:21:49;;;;;;;16.58;11.60;;;589.70;2432.00;;;;;;5043615;28;20120;-84
2022/09/10 09:24:34;;;;;;;19.83;11.75;;;614.80;2432.00;;;;;;5045773;28;20352;-84
2022/09/10 09:27:08;;;;;;;21.77;12.55;;;;;;;;;;5042049;28;20566;-86
2022/09/10 09:30:01;;;;;;;21.85;12.60;;;;;;;;;;5042288;28;20021;-85
2022/09/10 09:32:29;;;;;;;19.75;12.15;;;;;;;;;;5028098;28;20041;-85
2022/09/10 09:35:14;;;;;;;28.27;12.25;;;;;;;;;;5043430;28;20391;-86
2022/09/10 09:37:42;;;;;;;24.25;12.43;;;;;;;;;;5046575;28;20065;-86
2022/09/10 09:40:13;;;;;;;18.17;12.02;;;615.30;2432.00;;;;;;5045844;28;20029;-85
2022/09/10 09:43:15;;;;;;;23.98;12.57;;;615.30;2432.00;;;;;;5043726;28;20032;-84
2022/09/10 09:45:42;;;;;;;15.63;12.30;;;;;;;;;;5032708;28;20039;-84
2022/09/10 09:48:14;;;;;;;22.17;13.32;;;640.00;2432.00;;;;;;5041451;28;20031;-85
2022/09/10 09:50:44;;;;;;;20.42;13.30;;;615.30;2432.00;;;;;;5045360;28;20108;-85
2022/09/10 09:53:20;;;;;;;17.77;12.23;;;615.30;2432.00;;;;;;5047782;28;20033;-84
2022/09/10 09:55:55;;;;;;;21.48;12.30;;;640.00;2432.00;;;;;;5042498;28;20029;-85
2022/09/10 09:58:25;;;;;;;20.73;13.20;;;640.00;2432.00;;;;;;5043800;28;20421;-85
2022/09/10 10:00:54;;;;;;;18.65;13.30;;;640.00;2432.00;;;;;;5043239;28;20508;-84
2022/09/10 10:03:51;;;;;;;18.77;13.52;;;640.00;2432.00;;;;;;5044580;28;20033;-85
2022/09/10 10:06:21;;;;;;;22.55;14.52;;;640.10;2432.00;;;;;;5050179;28;20064;-85
2022/09/10 10:09:03;;;;;;;29.35;15.35;;;640.00;2432.00;;;;;;5046772;28;20040;-86
2022/09/10 10:11:44;;;;;;;26.15;13.13;;;640.00;2432.00;;;;;;5043149;28;20053;-85
2022/09/10 10:14:38;;;;;;;21.08;13.27;;;615.30;2432.00;;;;;;5053769;28;20386;-85
2022/09/10 10:17:26;;;;;;;19.20;12.80;;;640.00;2432.00;;;;;;5037814;28;20537;-85
2022/09/10 10:20:03;;;;;;;22.70;12.85;;;640.10;2432.00;;;;;;5046072;28;20032;-84
2022/09/10 10:22:30;;;;;;;21.15;12.20;;;640.10;2432.00;;;;;;5042847;28;20478;-83
2022/09/10 10:25:01;;;;;;;21.50;12.60;;;640.20;2432.00;;;;;;5044652;28;20039;-85
2022/09/10 10:27:34;;;;;;;26.52;12.50;;;640.20;2432.00;;;;;;5050994;28;20356;-86
2022/09/10 10:30:04;;;;;;;22.02;12.38;;;640.40;2432.00;;;;;;5047946;28;20036;-86
2022/09/10 10:32:45;;;;;;;19.75;11.00;;;640.70;2432.00;;;;;;5046004;28;20395;-86
2022/09/10 10:35:15;;;;;;;17.60;11.73;;;640.70;2432.00;;;;;;5047933;28;20028;-85
2022/09/10 10:37:46;;;;;;;18.42;10.93;;;640.70;2432.00;;;;;;5045575;28;20494;-85
2022/09/10 10:40:29;;;;;;;22.40;11.75;;;640.70;2432.00;;;;;;5041181;28;20033;-84
2022/09/10 10:43:26;;;;;;;22.73;11.38;;;640.60;2432.00;;;;;;5048164;28;20040;-86
2022/09/10 10:46:03;;;;;;;13.63;9.27;;;640.70;2432.00;;;;;;5041029;28;20470;-84
2022/09/10 10:49:20;;;;;;;12.98;7.63;;;640.70;2432.00;;;;;;5052253;28;20033;-85
2022/09/10 10:51:46;;;;;;;9.13;7.20;;;640.70;2432.00;;;;;;5015614;28;20037;-83
2022/09/10 10:54:49;;;;;;;11.75;6.70;;;640.70;2432.00;;;;;;5047194;28;20078;-85
2022/09/10 10:57:24;;;;;;;12.00;6.28;;;640.70;2432.00;;;;;;5047745;28;20485;-84
2022/09/10 10:59:56;;;;;;;11.60;7.22;;;640.70;2432.00;;;;;;5043516;28;20033;-85
2022/09/10 11:02:35;;;;;;;13.77;7.18;;;665.70;2432.00;;;;;;5047827;28;20487;-85
2022/09/10 11:05:16;;;;;;;10.90;7.30;;;665.90;2432.00;;;;;;5039983;28;20386;-85
2022/09/10 11:07:44;;;;;;;14.82;8.15;;;665.90;2432.00;;;;;;5044942;28;20032;-84
2022/09/10 11:10:30;;;;;;;15.00;6.95;;;666.30;2432.00;;;;;;5062620;28;20034;-85
2022/09/10 11:13:20;;;;;;;10.60;7.05;;;691.40;2432.00;;;;;;5047315;28;20049;-82
2022/09/10 11:15:54;;;;;;;9.65;5.70;;;691.80;2432.00;;;;;;5072432;28;20082;-83
2022/09/10 11:18:35;;;;;;;7.35;5.70;;;692.10;2432.00;;;;;;5045648;28;20079;-84
2022/09/10 11:21:22;;;;;;;8.90;5.03;;;717.00;2432.00;;;;;;5047089;28;20104;-84
2022/09/10 11:23:53;;;;;;;12.13;5.68;;;717.00;2432.00;;;;;;5050284;28;20266;-84
2022/09/10 11:26:44;;;;;;;9.50;5.03;;;717.30;2432.00;;;;;;5046000;28;20049;-84
2022/09/10 11:29:47;;;;;;;9.68;4.82;;;717.40;2432.00;;;;;;5051235;28;20029;-84
2022/09/10 11:32:35;;;;;;;9.40;5.00;;;717.60;2432.00;;;;;;5046037;28;20024;-83
2022/09/10 11:35:10;;;;;;;6.28;3.65;;;742.60;2432.00;;;;;;5038089;28;20026;-81
2022/09/10 11:37:55;;;;;;;6.13;3.33;;;717.60;2432.00;;;;;;5046809;28;20044;-82
2022/09/10 11:40:40;;;;;;;6.82;3.67;;;742.40;2432.00;;;;;;5073793;28;20079;-83
2022/09/10 11:43:18;;;;;;;10.10;3.88;;;717.70;2432.00;;;;;;5045282;28;20037;-84
2022/09/10 11:45:56;;;;;;;8.75;3.65;;;742.40;2432.00;;;;;;5044449;28;20025;-83
2022/09/10 11:49:02;;;;;;;8.45;4.05;;;717.70;2432.00;;;;;;5048941;28;20387;-84
2022/09/10 11:51:32;;;;;;;9.68;3.67;;;717.60;2432.00;;;;;;5048945;28;20489;-82
2022/09/10 11:54:01;;;;;;;5.47;3.28;;;742.60;2432.00;;;;;;5039287;28;20425;-82
2022/09/10 11:56:58;;;;;;;7.90;3.33;;;742.90;2432.00;;;;;;5043971;28;20116;-85
2022/09/10 11:59:55;;;;;;;8.35;3.70;;;743.30;2432.00;;;;;;5044139;28;20120;-83
2022/09/10 12:02:57;;;;;;;14.85;4.13;;;768.30;2432.00;;;;;;5043798;28;20147;-85
2022/09/10 12:06:01;;;;;;;9.98;4.70;;;768.80;2432.00;;;;;;5075282;28;20057;-85
2022/09/10 12:08:54;;;;;;;7.07;3.90;;;793.80;2432.00;;;;;;5046984;28;20029;-85
2022/09/10 12:11:57;;;;;;;7.75;3.70;;;768.90;2432.00;;;;;;5041699;28;20037;-86
2022/09/10 12:14:23;;;;;;;6.53;3.90;;;768.10;2432.00;;;;;;5045913;28;20033;-85
2022/09/10 12:17:03;;;;;;;14.50;6.03;;;743.30;2432.00;;;;;;5042026;28;20044;-83
2022/09/10 12:19:37;;;;;;;12.90;5.70;;;743.30;2432.00;;;;;;5050873;28;20120;-83
2022/09/10 12:22:08;;;;;;;10.75;4.30;;;743.00;2432.00;;;;;;5045028;28;20083;-84
2022/09/10 12:24:38;;;;;;;9.10;4.10;;;742.40;2432.00;;;;;;5044147;28;20044;-83
2022/09/10 12:27:05;;;;;;;8.60;3.67;;;742.80;2432.00;;;;;;5047614;28;20032;-85
2022/09/10 12:29:42;;;;;;;5.95;3.70;;;742.70;2432.00;;;;;;5046471;28;20123;-85
2022/09/10 12:32:11;;;;;;;6.72;3.90;;;742.70;2432.00;;;;;;5047979;28;20025;-84
2022/09/10 12:34:37;;;;;;;7.15;3.95;;;743.20;2432.00;;;;;;5040526;28;20032;-81
2022/09/10 12:37:03;;;;;;;7.72;4.40;;;768.40;2432.00;;;;;;5047648;28;20049;-84
2022/09/10 12:39:30;;;;;;;10.52;4.40;;;793.70;2432.00;;;;;;5041883;28;20045;-85